sensor_id;sensor_type;location;lat;lon;timestamp;P1;durP1;ratioP1;P2;durP2;ratioP2
23682;SDS011;24897;53.514;10.482;2022-07-23T00:01:10;22.13;;;20.23;;
23682;SDS011;24897;53.514;10.482;2022-07-23T00:03:54;21.33;;;19.33;;
23682;SDS011;24897;53.514;10.482;2022-07-23T00:06:39;22.50;;;20.30;;
23682;SDS011;24897;53.514;10.482;2022-07-23T00:09:24;21.57;;;19.63;;
23682;SDS011;24897;53.514;10.482;2022-07-23T00:12:08;21.37;;;19.47;;
23682;SDS011;24897;53.514;10.482;2022-07-23T00:14:52;21.30;;;19.37;;
23682;SDS011;24897;53.514;10.482;2022-07-23T00:17:36;21.97;;;20.03;;
23682;SDS011;24897;53.514;10.482;2022-07-23T00:20:21;21.80;;;19.90;;
23682;SDS011;24897;53.514;10.482;2022-07-23T00:23:05;21.70;;;19.83;;
23682;SDS011;24897;53.514;10.482;2022-07-23T00:25:49;22.00;;;20.10;;
23682;SDS011;24897;53.514;10.482;2022-07-23T00:28:34;22.40;;;20.30;;
23682;SDS011;24897;53.514;10.482;2022-07-23T00:31:18;21.37;;;19.57;;
23682;SDS011;24897;53.514;10.482;2022-07-23T00:34:02;23.10;;;21.10;;
23682;SDS011;24897;53.514;10.482;2022-07-23T00:36:46;22.83;;;20.83;;
23682;SDS011;24897;53.514;10.482;2022-07-23T00:39:30;22.70;;;20.67;;
23682;SDS011;24897;53.514;10.482;2022-07-23T00:42:15;21.70;;;19.83;;
23682;SDS011;24897;53.514;10.482;2022-07-23T00:45:02;22.67;;;20.67;;
23682;SDS011;24897;53.514;10.482;2022-07-23T00:47:47;21.53;;;19.73;;
23682;SDS011;24897;53.514;10.482;2022-07-23T00:50:32;22.40;;;20.23;;
23682;SDS011;24897;53.514;10.482;2022-07-23T00:53:17;22.10;;;20.10;;
23682;SDS011;24897;53.514;10.482;2022-07-23T00:56:03;23.17;;;21.17;;
23682;SDS011;24897;53.514;10.482;2022-07-23T00:58:48;22.57;;;20.60;;
23682;SDS011;24897;53.514;10.482;2022-07-23T01:01:33;24.17;;;22.03;;
23682;SDS011;24897;53.514;10.482;2022-07-23T01:04:17;22.90;;;20.90;;
23682;SDS011;24897;53.514;10.482;2022-07-23T01:07:02;26.20;;;22.53;;
23682;SDS011;24897;53.514;10.482;2022-07-23T01:09:46;23.10;;;21.10;;
23682;SDS011;24897;53.514;10.482;2022-07-23T01:12:32;24.23;;;22.07;;
23682;SDS011;24897;53.514;10.482;2022-07-23T01:15:16;23.63;;;21.40;;
23682;SDS011;24897;53.514;10.482;2022-07-23T01:18:00;25.23;;;22.97;;
23682;SDS011;24897;53.514;10.482;2022-07-23T01:20:45;22.90;;;21.00;;
23682;SDS011;24897;53.514;10.482;2022-07-23T01:23:29;24.50;;;22.20;;
23682;SDS011;24897;53.514;10.482;2022-07-23T01:26:13;24.23;;;21.93;;
23682;SDS011;24897;53.514;10.482;2022-07-23T01:29:00;23.97;;;21.97;;
23682;SDS011;24897;53.514;10.482;2022-07-23T01:31:44;24.70;;;22.40;;
23682;SDS011;24897;53.514;10.482;2022-07-23T01:34:28;23.33;;;21.37;;
23682;SDS011;24897;53.514;10.482;2022-07-23T01:37:12;24.73;;;22.43;;
23682;SDS011;24897;53.514;10.482;2022-07-23T01:39:57;25.27;;;22.77;;
23682;SDS011;24897;53.514;10.482;2022-07-23T01:42:41;23.40;;;21.40;;
23682;SDS011;24897;53.514;10.482;2022-07-23T01:45:25;24.63;;;22.33;;
23682;SDS011;24897;53.514;10.482;2022-07-23T01:48:10;24.23;;;22.03;;
23682;SDS011;24897;53.514;10.482;2022-07-23T01:50:54;25.60;;;23.10;;
23682;SDS011;24897;53.514;10.482;2022-07-23T01:53:38;24.27;;;21.93;;
23682;SDS011;24897;53.514;10.482;2022-07-23T01:56:22;23.23;;;21.20;;
23682;SDS011;24897;53.514;10.482;2022-07-23T01:59:06;23.97;;;21.67;;
23682;SDS011;24897;53.514;10.482;2022-07-23T02:01:50;24.97;;;22.67;;
23682;SDS011;24897;53.514;10.482;2022-07-23T02:04:34;24.87;;;22.83;;
23682;SDS011;24897;53.514;10.482;2022-07-23T02:07:20;24.90;;;22.50;;
23682;SDS011;24897;53.514;10.482;2022-07-23T02:10:04;24.97;;;22.93;;
23682;SDS011;24897;53.514;10.482;2022-07-23T02:12:48;25.17;;;22.70;;
23682;SDS011;24897;53.514;10.482;2022-07-23T02:15:33;24.33;;;22.30;;
23682;SDS011;24897;53.514;10.482;2022-07-23T02:18:17;24.13;;;22.00;;
23682;SDS011;24897;53.514;10.482;2022-07-23T02:21:02;23.67;;;21.27;;
23682;SDS011;24897;53.514;10.482;2022-07-23T02:23:46;23.83;;;21.73;;
23682;SDS011;24897;53.514;10.482;2022-07-23T02:26:31;23.97;;;21.97;;
23682;SDS011;24897;53.514;10.482;2022-07-23T02:29:18;24.17;;;22.07;;
23682;SDS011;24897;53.514;10.482;2022-07-23T02:32:03;22.73;;;20.87;;
23682;SDS011;24897;53.514;10.482;2022-07-23T02:34:47;22.30;;;20.30;;
23682;SDS011;24897;53.514;10.482;2022-07-23T02:37:32;23.00;;;20.83;;
23682;SDS011;24897;53.514;10.482;2022-07-23T02:40:16;23.60;;;21.60;;
23682;SDS011;24897;53.514;10.482;2022-07-23T02:43:01;23.77;;;21.60;;
23682;SDS011;24897;53.514;10.482;2022-07-23T02:45:45;23.50;;;21.37;;
23682;SDS011;24897;53.514;10.482;2022-07-23T02:48:30;24.23;;;21.93;;
23682;SDS011;24897;53.514;10.482;2022-07-23T02:51:14;23.70;;;21.50;;
23682;SDS011;24897;53.514;10.482;2022-07-23T02:53:58;23.00;;;21.00;;
23682;SDS011;24897;53.514;10.482;2022-07-23T02:56:43;24.17;;;21.83;;
23682;SDS011;24897;53.514;10.482;2022-07-23T02:59:27;23.70;;;21.60;;
23682;SDS011;24897;53.514;10.482;2022-07-23T03:02:11;23.20;;;21.13;;
23682;SDS011;24897;53.514;10.482;2022-07-23T03:04:55;23.10;;;21.07;;
23682;SDS011;24897;53.514;10.482;2022-07-23T03:07:39;23.63;;;21.57;;
23682;SDS011;24897;53.514;10.482;2022-07-23T03:10:24;23.90;;;21.77;;
23682;SDS011;24897;53.514;10.482;2022-07-23T03:13:08;22.73;;;20.43;;
23682;SDS011;24897;53.514;10.482;2022-07-23T03:15:52;23.93;;;21.83;;
23682;SDS011;24897;53.514;10.482;2022-07-23T03:18:36;24.23;;;22.00;;
23682;SDS011;24897;53.514;10.482;2022-07-23T03:21:21;23.63;;;21.37;;
23682;SDS011;24897;53.514;10.482;2022-07-23T03:24:06;24.23;;;22.03;;
23682;SDS011;24897;53.514;10.482;2022-07-23T03:26:52;23.77;;;21.57;;
23682;SDS011;24897;53.514;10.482;2022-07-23T03:29:36;23.87;;;21.63;;
23682;SDS011;24897;53.514;10.482;2022-07-23T03:32:20;23.83;;;21.73;;
23682;SDS011;24897;53.514;10.482;2022-07-23T03:35:05;23.27;;;21.30;;
23682;SDS011;24897;53.514;10.482;2022-07-23T03:37:50;23.90;;;21.80;;
23682;SDS011;24897;53.514;10.482;2022-07-23T03:40:34;24.77;;;22.40;;
23682;SDS011;24897;53.514;10.482;2022-07-23T03:43:18;24.47;;;22.13;;
23682;SDS011;24897;53.514;10.482;2022-07-23T03:46:02;24.27;;;21.93;;
23682;SDS011;24897;53.514;10.482;2022-07-23T03:48:46;22.97;;;20.97;;
23682;SDS011;24897;53.514;10.482;2022-07-23T03:51:30;24.20;;;22.00;;
23682;SDS011;24897;53.514;10.482;2022-07-23T03:54:14;22.60;;;20.70;;
23682;SDS011;24897;53.514;10.482;2022-07-23T03:56:58;22.33;;;20.30;;
23682;SDS011;24897;53.514;10.482;2022-07-23T03:59:42;22.47;;;20.50;;
23682;SDS011;24897;53.514;10.482;2022-07-23T04:02:26;23.70;;;21.70;;
23682;SDS011;24897;53.514;10.482;2022-07-23T04:05:11;23.37;;;21.37;;
23682;SDS011;24897;53.514;10.482;2022-07-23T04:07:55;25.30;;;23.00;;
23682;SDS011;24897;53.514;10.482;2022-07-23T04:10:39;24.10;;;21.83;;
23682;SDS011;24897;53.514;10.482;2022-07-23T04:13:23;23.93;;;21.80;;
23682;SDS011;24897;53.514;10.482;2022-07-23T04:16:07;24.57;;;22.33;;
23682;SDS011;24897;53.514;10.482;2022-07-23T04:18:52;25.73;;;23.53;;
23682;SDS011;24897;53.514;10.482;2022-07-23T04:21:36;24.10;;;21.93;;
23682;SDS011;24897;53.514;10.482;2022-07-23T04:24:20;24.70;;;22.53;;
23682;SDS011;24897;53.514;10.482;2022-07-23T04:27:04;23.30;;;21.13;;
23682;SDS011;24897;53.514;10.482;2022-07-23T04:29:49;24.50;;;22.13;;
23682;SDS011;24897;53.514;10.482;2022-07-23T04:32:33;24.80;;;22.53;;
23682;SDS011;24897;53.514;10.482;2022-07-23T04:35:17;25.33;;;23.07;;
23682;SDS011;24897;53.514;10.482;2022-07-23T04:38:02;22.97;;;21.17;;
23682;SDS011;24897;53.514;10.482;2022-07-23T04:40:47;25.60;;;23.47;;
23682;SDS011;24897;53.514;10.482;2022-07-23T04:43:30;25.07;;;22.73;;
23682;SDS011;24897;53.514;10.482;2022-07-23T04:46:15;23.20;;;21.30;;
23682;SDS011;24897;53.514;10.482;2022-07-23T04:48:59;24.20;;;21.90;;
23682;SDS011;24897;53.514;10.482;2022-07-23T04:51:43;24.73;;;22.47;;
23682;SDS011;24897;53.514;10.482;2022-07-23T04:54:27;24.77;;;22.47;;
23682;SDS011;24897;53.514;10.482;2022-07-23T04:57:11;25.63;;;23.03;;
23682;SDS011;24897;53.514;10.482;2022-07-23T04:59:55;25.20;;;22.80;;
23682;SDS011;24897;53.514;10.482;2022-07-23T05:02:39;24.40;;;22.20;;
23682;SDS011;24897;53.514;10.482;2022-07-23T05:05:23;24.70;;;22.47;;
23682;SDS011;24897;53.514;10.482;2022-07-23T05:08:07;24.83;;;22.53;;
23682;SDS011;24897;53.514;10.482;2022-07-23T05:10:52;25.60;;;23.13;;
23682;SDS011;24897;53.514;10.482;2022-07-23T05:13:36;24.70;;;22.30;;
23682;SDS011;24897;53.514;10.482;2022-07-23T05:16:20;25.80;;;23.03;;
23682;SDS011;24897;53.514;10.482;2022-07-23T05:19:04;27.13;;;24.37;;
23682;SDS011;24897;53.514;10.482;2022-07-23T05:21:48;26.43;;;23.93;;
23682;SDS011;24897;53.514;10.482;2022-07-23T05:24:32;26.67;;;24.17;;
23682;SDS011;24897;53.514;10.482;2022-07-23T05:27:16;26.83;;;23.97;;
23682;SDS011;24897;53.514;10.482;2022-07-23T05:30:00;28.80;;;26.00;;
23682;SDS011;24897;53.514;10.482;2022-07-23T05:32:45;27.20;;;24.60;;
23682;SDS011;24897;53.514;10.482;2022-07-23T05:35:29;27.80;;;25.07;;
23682;SDS011;24897;53.514;10.482;2022-07-23T05:38:13;28.27;;;25.23;;
23682;SDS011;24897;53.514;10.482;2022-07-23T05:40:57;28.23;;;25.53;;
23682;SDS011;24897;53.514;10.482;2022-07-23T05:43:41;28.60;;;24.37;;
23682;SDS011;24897;53.514;10.482;2022-07-23T05:46:26;27.23;;;24.43;;
23682;SDS011;24897;53.514;10.482;2022-07-23T05:49:10;29.40;;;26.43;;
23682;SDS011;24897;53.514;10.482;2022-07-23T05:51:57;28.43;;;25.43;;
23682;SDS011;24897;53.514;10.482;2022-07-23T05:54:41;28.27;;;25.47;;
23682;SDS011;24897;53.514;10.482;2022-07-23T05:57:25;26.90;;;24.33;;
23682;SDS011;24897;53.514;10.482;2022-07-23T06:00:10;28.03;;;25.13;;
23682;SDS011;24897;53.514;10.482;2022-07-23T06:02:54;28.07;;;25.37;;
23682;SDS011;24897;53.514;10.482;2022-07-23T06:05:39;29.80;;;26.70;;
23682;SDS011;24897;53.514;10.482;2022-07-23T06:08:23;28.70;;;25.70;;
23682;SDS011;24897;53.514;10.482;2022-07-23T06:11:07;28.40;;;25.60;;
23682;SDS011;24897;53.514;10.482;2022-07-23T06:13:52;31.13;;;27.03;;
23682;SDS011;24897;53.514;10.482;2022-07-23T06:16:36;29.13;;;26.23;;
23682;SDS011;24897;53.514;10.482;2022-07-23T06:19:20;31.47;;;28.13;;
23682;SDS011;24897;53.514;10.482;2022-07-23T06:22:04;30.20;;;26.97;;
23682;SDS011;24897;53.514;10.482;2022-07-23T06:24:48;29.87;;;26.80;;
23682;SDS011;24897;53.514;10.482;2022-07-23T06:27:35;30.10;;;25.63;;
23682;SDS011;24897;53.514;10.482;2022-07-23T06:30:19;27.07;;;24.47;;
23682;SDS011;24897;53.514;10.482;2022-07-23T06:33:03;24.07;;;21.70;;
23682;SDS011;24897;53.514;10.482;2022-07-23T06:35:47;19.83;;;18.13;;
23682;SDS011;24897;53.514;10.482;2022-07-23T06:38:32;18.00;;;16.50;;
23682;SDS011;24897;53.514;10.482;2022-07-23T06:41:16;19.67;;;17.87;;
23682;SDS011;24897;53.514;10.482;2022-07-23T06:44:00;22.93;;;20.83;;
23682;SDS011;24897;53.514;10.482;2022-07-23T06:46:44;23.53;;;21.17;;
23682;SDS011;24897;53.514;10.482;2022-07-23T06:49:28;22.77;;;20.77;;
23682;SDS011;24897;53.514;10.482;2022-07-23T06:52:12;24.40;;;21.50;;
23682;SDS011;24897;53.514;10.482;2022-07-23T06:54:56;24.13;;;22.13;;
23682;SDS011;24897;53.514;10.482;2022-07-23T06:57:40;24.83;;;22.33;;
23682;SDS011;24897;53.514;10.482;2022-07-23T07:00:25;22.13;;;20.30;;
23682;SDS011;24897;53.514;10.482;2022-07-23T07:03:10;19.83;;;18.13;;
23682;SDS011;24897;53.514;10.482;2022-07-23T07:05:54;18.67;;;16.90;;
23682;SDS011;24897;53.514;10.482;2022-07-23T07:08:40;18.33;;;16.73;;
23682;SDS011;24897;53.514;10.482;2022-07-23T07:11:26;19.47;;;17.67;;
23682;SDS011;24897;53.514;10.482;2022-07-23T07:14:10;19.40;;;17.87;;
23682;SDS011;24897;53.514;10.482;2022-07-23T07:16:55;19.93;;;18.27;;
23682;SDS011;24897;53.514;10.482;2022-07-23T07:19:39;19.43;;;17.63;;
23682;SDS011;24897;53.514;10.482;2022-07-23T07:22:23;18.90;;;17.30;;
23682;SDS011;24897;53.514;10.482;2022-07-23T07:25:07;19.70;;;17.80;;
23682;SDS011;24897;53.514;10.482;2022-07-23T07:27:52;19.93;;;18.10;;
23682;SDS011;24897;53.514;10.482;2022-07-23T07:30:36;20.83;;;18.90;;
23682;SDS011;24897;53.514;10.482;2022-07-23T07:33:20;19.97;;;18.27;;
23682;SDS011;24897;53.514;10.482;2022-07-23T07:36:05;20.07;;;18.27;;
23682;SDS011;24897;53.514;10.482;2022-07-23T07:38:49;20.80;;;18.90;;
23682;SDS011;24897;53.514;10.482;2022-07-23T07:41:33;20.20;;;18.50;;
23682;SDS011;24897;53.514;10.482;2022-07-23T07:44:17;21.70;;;19.73;;
23682;SDS011;24897;53.514;10.482;2022-07-23T07:47:01;21.03;;;19.27;;
23682;SDS011;24897;53.514;10.482;2022-07-23T07:49:45;19.87;;;18.13;;
23682;SDS011;24897;53.514;10.482;2022-07-23T07:52:29;18.57;;;17.17;;
23682;SDS011;24897;53.514;10.482;2022-07-23T07:55:13;19.80;;;18.10;;
23682;SDS011;24897;53.514;10.482;2022-07-23T07:57:58;19.40;;;17.87;;
23682;SDS011;24897;53.514;10.482;2022-07-23T08:00:42;19.67;;;17.97;;
23682;SDS011;24897;53.514;10.482;2022-07-23T08:03:26;18.33;;;16.80;;
23682;SDS011;24897;53.514;10.482;2022-07-23T08:06:10;17.53;;;16.17;;
23682;SDS011;24897;53.514;10.482;2022-07-23T08:08:54;16.67;;;15.37;;
23682;SDS011;24897;53.514;10.482;2022-07-23T08:11:38;16.50;;;15.17;;
23682;SDS011;24897;53.514;10.482;2022-07-23T08:14:22;15.50;;;14.40;;
23682;SDS011;24897;53.514;10.482;2022-07-23T08:17:06;14.80;;;13.80;;
23682;SDS011;24897;53.514;10.482;2022-07-23T08:19:50;14.60;;;13.50;;
23682;SDS011;24897;53.514;10.482;2022-07-23T08:22:45;15.40;;;14.30;;
23682;SDS011;24897;53.514;10.482;2022-07-23T08:25:32;16.17;;;14.87;;
23682;SDS011;24897;53.514;10.482;2022-07-23T08:28:21;16.73;;;15.33;;
23682;SDS011;24897;53.514;10.482;2022-07-23T08:31:05;19.00;;;17.40;;
23682;SDS011;24897;53.514;10.482;2022-07-23T08:33:49;21.30;;;19.50;;
23682;SDS011;24897;53.514;10.482;2022-07-23T08:36:33;23.10;;;21.20;;
23682;SDS011;24897;53.514;10.482;2022-07-23T08:39:17;23.07;;;21.30;;
23682;SDS011;24897;53.514;10.482;2022-07-23T08:42:01;20.63;;;19.03;;
23682;SDS011;24897;53.514;10.482;2022-07-23T08:44:45;19.20;;;17.70;;
23682;SDS011;24897;53.514;10.482;2022-07-23T08:47:30;18.07;;;16.67;;
23682;SDS011;24897;53.514;10.482;2022-07-23T08:50:15;17.77;;;16.47;;
23682;SDS011;24897;53.514;10.482;2022-07-23T08:52:59;16.63;;;15.43;;
23682;SDS011;24897;53.514;10.482;2022-07-23T08:55:45;15.00;;;13.80;;
23682;SDS011;24897;53.514;10.482;2022-07-23T08:58:31;14.80;;;13.63;;
23682;SDS011;24897;53.514;10.482;2022-07-23T09:01:15;15.30;;;14.20;;
23682;SDS011;24897;53.514;10.482;2022-07-23T09:03:59;15.60;;;14.40;;
23682;SDS011;24897;53.514;10.482;2022-07-23T09:06:45;16.70;;;15.30;;
23682;SDS011;24897;53.514;10.482;2022-07-23T09:09:29;17.13;;;15.83;;
23682;SDS011;24897;53.514;10.482;2022-07-23T09:12:13;17.73;;;16.43;;
23682;SDS011;24897;53.514;10.482;2022-07-23T09:15:02;20.43;;;18.83;;
23682;SDS011;24897;53.514;10.482;2022-07-23T09:17:48;18.30;;;16.90;;
23682;SDS011;24897;53.514;10.482;2022-07-23T09:20:32;18.07;;;16.70;;
23682;SDS011;24897;53.514;10.482;2022-07-23T09:23:16;17.70;;;16.40;;
23682;SDS011;24897;53.514;10.482;2022-07-23T09:26:00;18.57;;;17.17;;
23682;SDS011;24897;53.514;10.482;2022-07-23T09:28:49;18.43;;;16.93;;
23682;SDS011;24897;53.514;10.482;2022-07-23T09:32:01;18.90;;;17.47;;
23682;SDS011;24897;53.514;10.482;2022-07-23T09:34:48;19.60;;;18.07;;
23682;SDS011;24897;53.514;10.482;2022-07-23T09:37:33;18.70;;;17.20;;
23682;SDS011;24897;53.514;10.482;2022-07-23T09:40:17;17.47;;;16.07;;
23682;SDS011;24897;53.514;10.482;2022-07-23T09:43:01;24.47;;;22.27;;
23682;SDS011;24897;53.514;10.482;2022-07-23T09:45:45;15.67;;;14.47;;
23682;SDS011;24897;53.514;10.482;2022-07-23T09:48:32;15.33;;;14.17;;
23682;SDS011;24897;53.514;10.482;2022-07-23T09:51:17;15.30;;;14.20;;
23682;SDS011;24897;53.514;10.482;2022-07-23T09:54:07;14.07;;;13.07;;
23682;SDS011;24897;53.514;10.482;2022-07-23T09:57:19;14.07;;;13.07;;
23682;SDS011;24897;53.514;10.482;2022-07-23T10:00:05;14.27;;;13.30;;
23682;SDS011;24897;53.514;10.482;2022-07-23T10:02:52;13.70;;;12.80;;
23682;SDS011;24897;53.514;10.482;2022-07-23T10:05:37;14.10;;;13.07;;
23682;SDS011;24897;53.514;10.482;2022-07-23T10:08:26;14.43;;;13.33;;
23682;SDS011;24897;53.514;10.482;2022-07-23T10:11:12;14.13;;;13.13;;
23682;SDS011;24897;53.514;10.482;2022-07-23T10:13:58;15.07;;;13.87;;
23682;SDS011;24897;53.514;10.482;2022-07-23T10:16:43;14.43;;;13.43;;
23682;SDS011;24897;53.514;10.482;2022-07-23T10:19:27;15.93;;;14.63;;
23682;SDS011;24897;53.514;10.482;2022-07-23T10:22:13;15.13;;;14.03;;
23682;SDS011;24897;53.514;10.482;2022-07-23T10:31:18;15.07;;;13.87;;
23682;SDS011;24897;53.514;10.482;2022-07-23T10:34:25;16.90;;;15.70;;
23682;SDS011;24897;53.514;10.482;2022-07-23T10:37:39;15.07;;;14.07;;
23682;SDS011;24897;53.514;10.482;2022-07-23T10:40:28;16.23;;;15.07;;
23682;SDS011;24897;53.514;10.482;2022-07-23T10:43:15;14.83;;;13.83;;
23682;SDS011;24897;53.514;10.482;2022-07-23T10:49:31;14.30;;;13.30;;
23682;SDS011;24897;53.514;10.482;2022-07-23T10:52:17;15.67;;;14.47;;
23682;SDS011;24897;53.514;10.482;2022-07-23T10:57:53;15.30;;;14.10;;
23682;SDS011;24897;53.514;10.482;2022-07-23T11:00:37;15.67;;;14.57;;
23682;SDS011;24897;53.514;10.482;2022-07-23T11:03:27;15.87;;;14.47;;
23682;SDS011;24897;53.514;10.482;2022-07-23T11:06:15;15.63;;;14.43;;
23682;SDS011;24897;53.514;10.482;2022-07-23T11:15:02;15.43;;;14.33;;
23682;SDS011;24897;53.514;10.482;2022-07-23T11:20:34;15.87;;;14.70;;
23682;SDS011;24897;53.514;10.482;2022-07-23T11:23:18;16.50;;;15.17;;
23682;SDS011;24897;53.514;10.482;2022-07-23T11:26:02;15.60;;;14.50;;
23682;SDS011;24897;53.514;10.482;2022-07-23T11:28:48;15.30;;;14.20;;
23682;SDS011;24897;53.514;10.482;2022-07-23T11:31:32;15.67;;;14.40;;
23682;SDS011;24897;53.514;10.482;2022-07-23T11:34:24;15.23;;;14.13;;
23682;SDS011;24897;53.514;10.482;2022-07-23T11:37:29;15.17;;;14.07;;
23682;SDS011;24897;53.514;10.482;2022-07-23T11:40:22;15.40;;;14.20;;
23682;SDS011;24897;53.514;10.482;2022-07-23T11:43:07;15.47;;;14.37;;
23682;SDS011;24897;53.514;10.482;2022-07-23T11:45:53;15.00;;;13.90;;
23682;SDS011;24897;53.514;10.482;2022-07-23T11:48:41;14.80;;;13.70;;
23682;SDS011;24897;53.514;10.482;2022-07-23T11:51:25;15.40;;;14.20;;
23682;SDS011;24897;53.514;10.482;2022-07-23T11:54:10;15.47;;;14.27;;
23682;SDS011;24897;53.514;10.482;2022-07-23T11:56:55;15.20;;;14.10;;
23682;SDS011;24897;53.514;10.482;2022-07-23T11:59:40;15.05;;;13.95;;
23682;SDS011;24897;53.514;10.482;2022-07-23T12:02:25;15.53;;;14.23;;
23682;SDS011;24897;53.514;10.482;2022-07-23T12:05:14;15.43;;;14.27;;
23682;SDS011;24897;53.514;10.482;2022-07-23T12:08:00;15.33;;;14.23;;
23682;SDS011;24897;53.514;10.482;2022-07-23T12:10:45;15.43;;;14.23;;
23682;SDS011;24897;53.514;10.482;2022-07-23T12:13:29;15.43;;;14.20;;
23682;SDS011;24897;53.514;10.482;2022-07-23T12:16:14;15.40;;;14.20;;
23682;SDS011;24897;53.514;10.482;2022-07-23T12:18:57;15.17;;;14.00;;
23682;SDS011;24897;53.514;10.482;2022-07-23T12:21:42;15.30;;;14.10;;
23682;SDS011;24897;53.514;10.482;2022-07-23T12:24:30;15.43;;;14.17;;
23682;SDS011;24897;53.514;10.482;2022-07-23T12:27:15;15.63;;;14.43;;
23682;SDS011;24897;53.514;10.482;2022-07-23T12:29:59;15.97;;;14.77;;
23682;SDS011;24897;53.514;10.482;2022-07-23T12:32:58;15.70;;;14.60;;
23682;SDS011;24897;53.514;10.482;2022-07-23T12:35:45;15.57;;;14.38;;
23682;SDS011;24897;53.514;10.482;2022-07-23T12:38:36;15.70;;;14.50;;
23682;SDS011;24897;53.514;10.482;2022-07-23T12:41:22;15.20;;;14.10;;
23682;SDS011;24897;53.514;10.482;2022-07-23T12:44:15;16.63;;;15.43;;
23682;SDS011;24897;53.514;10.482;2022-07-23T12:46:59;15.33;;;14.30;;
23682;SDS011;24897;53.514;10.482;2022-07-23T12:49:48;15.67;;;14.40;;
23682;SDS011;24897;53.514;10.482;2022-07-23T12:52:32;16.40;;;15.00;;
23682;SDS011;24897;53.514;10.482;2022-07-23T12:55:29;14.80;;;13.70;;
23682;SDS011;24897;53.514;10.482;2022-07-23T12:58:14;15.93;;;14.47;;
23682;SDS011;24897;53.514;10.482;2022-07-23T13:01:04;14.67;;;13.57;;
23682;SDS011;24897;53.514;10.482;2022-07-23T13:06:47;15.50;;;14.40;;
23682;SDS011;24897;53.514;10.482;2022-07-23T13:09:32;15.30;;;14.10;;
23682;SDS011;24897;53.514;10.482;2022-07-23T13:12:17;15.83;;;14.67;;
23682;SDS011;24897;53.514;10.482;2022-07-23T13:15:01;16.17;;;14.87;;
23682;SDS011;24897;53.514;10.482;2022-07-23T13:17:46;15.97;;;14.77;;
23682;SDS011;24897;53.514;10.482;2022-07-23T13:20:32;15.57;;;14.27;;
23682;SDS011;24897;53.514;10.482;2022-07-23T13:23:17;16.17;;;14.77;;
23682;SDS011;24897;53.514;10.482;2022-07-23T13:26:02;16.20;;;14.80;;
23682;SDS011;24897;53.514;10.482;2022-07-23T13:28:47;16.33;;;15.03;;
23682;SDS011;24897;53.514;10.482;2022-07-23T13:31:32;15.80;;;14.60;;
23682;SDS011;24897;53.514;10.482;2022-07-23T13:34:16;15.87;;;14.57;;
23682;SDS011;24897;53.514;10.482;2022-07-23T13:37:01;15.90;;;14.50;;
23682;SDS011;24897;53.514;10.482;2022-07-23T13:39:45;15.77;;;14.30;;
23682;SDS011;24897;53.514;10.482;2022-07-23T13:42:29;16.60;;;15.20;;
23682;SDS011;24897;53.514;10.482;2022-07-23T13:45:13;17.77;;;16.07;;
23682;SDS011;24897;53.514;10.482;2022-07-23T13:47:58;16.50;;;15.10;;
23682;SDS011;24897;53.514;10.482;2022-07-23T13:50:43;16.17;;;14.87;;
23682;SDS011;24897;53.514;10.482;2022-07-23T13:53:28;16.30;;;14.80;;
23682;SDS011;24897;53.514;10.482;2022-07-23T13:56:13;16.87;;;15.37;;
23682;SDS011;24897;53.514;10.482;2022-07-23T13:58:57;17.20;;;15.70;;
23682;SDS011;24897;53.514;10.482;2022-07-23T14:01:41;17.30;;;15.70;;
23682;SDS011;24897;53.514;10.482;2022-07-23T14:04:25;16.53;;;15.20;;
23682;SDS011;24897;53.514;10.482;2022-07-23T14:07:09;15.87;;;14.53;;
23682;SDS011;24897;53.514;10.482;2022-07-23T14:09:54;15.80;;;14.50;;
23682;SDS011;24897;53.514;10.482;2022-07-23T14:12:38;15.90;;;14.60;;
23682;SDS011;24897;53.514;10.482;2022-07-23T14:15:23;15.70;;;14.50;;
23682;SDS011;24897;53.514;10.482;2022-07-23T14:18:10;16.40;;;14.90;;
23682;SDS011;24897;53.514;10.482;2022-07-23T14:20:54;15.80;;;14.40;;
23682;SDS011;24897;53.514;10.482;2022-07-23T14:23:38;16.27;;;14.90;;
23682;SDS011;24897;53.514;10.482;2022-07-23T14:26:22;16.03;;;14.80;;
23682;SDS011;24897;53.514;10.482;2022-07-23T14:29:07;16.70;;;15.40;;
23682;SDS011;24897;53.514;10.482;2022-07-23T14:31:53;16.60;;;15.20;;
23682;SDS011;24897;53.514;10.482;2022-07-23T14:34:37;15.77;;;14.57;;
23682;SDS011;24897;53.514;10.482;2022-07-23T14:37:21;16.20;;;14.70;;
23682;SDS011;24897;53.514;10.482;2022-07-23T14:40:06;15.50;;;14.30;;
23682;SDS011;24897;53.514;10.482;2022-07-23T14:42:50;15.43;;;14.27;;
23682;SDS011;24897;53.514;10.482;2022-07-23T14:45:35;16.00;;;14.70;;
23682;SDS011;24897;53.514;10.482;2022-07-23T14:48:19;15.77;;;14.50;;
23682;SDS011;24897;53.514;10.482;2022-07-23T14:51:03;15.70;;;14.50;;
23682;SDS011;24897;53.514;10.482;2022-07-23T14:53:47;15.47;;;14.17;;
23682;SDS011;24897;53.514;10.482;2022-07-23T14:56:32;15.47;;;14.07;;
23682;SDS011;24897;53.514;10.482;2022-07-23T14:59:17;17.70;;;16.07;;
23682;SDS011;24897;53.514;10.482;2022-07-23T15:02:02;20.17;;;18.23;;
23682;SDS011;24897;53.514;10.482;2022-07-23T15:04:46;16.10;;;14.90;;
23682;SDS011;24897;53.514;10.482;2022-07-23T15:07:30;16.67;;;15.20;;
23682;SDS011;24897;53.514;10.482;2022-07-23T15:10:14;17.00;;;15.40;;
23682;SDS011;24897;53.514;10.482;2022-07-23T15:12:59;16.93;;;15.63;;
23682;SDS011;24897;53.514;10.482;2022-07-23T15:15:43;16.20;;;14.80;;
23682;SDS011;24897;53.514;10.482;2022-07-23T15:18:27;16.83;;;15.47;;
23682;SDS011;24897;53.514;10.482;2022-07-23T15:21:12;16.30;;;15.10;;
23682;SDS011;24897;53.514;10.482;2022-07-23T15:23:56;16.30;;;14.90;;
23682;SDS011;24897;53.514;10.482;2022-07-23T15:26:44;16.10;;;14.60;;
23682;SDS011;24897;53.514;10.482;2022-07-23T15:29:29;15.70;;;14.50;;
23682;SDS011;24897;53.514;10.482;2022-07-23T15:32:13;15.87;;;14.60;;
23682;SDS011;24897;53.514;10.482;2022-07-23T15:34:57;16.00;;;14.60;;
23682;SDS011;24897;53.514;10.482;2022-07-23T15:37:41;16.10;;;14.80;;
23682;SDS011;24897;53.514;10.482;2022-07-23T15:40:26;15.67;;;14.47;;
23682;SDS011;24897;53.514;10.482;2022-07-23T15:43:10;15.60;;;14.40;;
23682;SDS011;24897;53.514;10.482;2022-07-23T15:45:55;16.20;;;15.00;;
23682;SDS011;24897;53.514;10.482;2022-07-23T15:48:39;15.93;;;14.63;;
23682;SDS011;24897;53.514;10.482;2022-07-23T15:51:23;15.63;;;14.50;;
23682;SDS011;24897;53.514;10.482;2022-07-23T15:54:07;15.63;;;14.33;;
23682;SDS011;24897;53.514;10.482;2022-07-23T15:56:52;15.50;;;14.40;;
23682;SDS011;24897;53.514;10.482;2022-07-23T15:59:37;15.83;;;14.43;;
23682;SDS011;24897;53.514;10.482;2022-07-23T16:02:21;16.37;;;14.97;;
23682;SDS011;24897;53.514;10.482;2022-07-23T16:05:06;15.40;;;14.20;;
23682;SDS011;24897;53.514;10.482;2022-07-23T16:08:10;15.73;;;14.53;;
23682;SDS011;24897;53.514;10.482;2022-07-23T16:10:54;15.13;;;14.03;;
23682;SDS011;24897;53.514;10.482;2022-07-23T16:13:42;16.60;;;15.20;;
23682;SDS011;24897;53.514;10.482;2022-07-23T16:16:27;16.50;;;14.90;;